sensor_id;sensor_type;location;lat;lon;timestamp;P1;durP1;ratioP1;P2;durP2;ratioP2
43744;SDS011;29359;53.048;8.732;2023-06-01T00:00:58;12.23;;;4.53;;
43744;SDS011;29359;53.048;8.732;2023-06-01T00:03:02;14.23;;;4.57;;
43744;SDS011;29359;53.048;8.732;2023-06-01T00:05:04;14.43;;;3.65;;
43744;SDS011;29359;53.048;8.732;2023-06-01T00:07:07;16.25;;;4.20;;
43744;SDS011;29359;53.048;8.732;2023-06-01T00:09:09;14.18;;;4.20;;
43744;SDS011;29359;53.048;8.732;2023-06-01T00:11:11;14.15;;;4.38;;
43744;SDS011;29359;53.048;8.732;2023-06-01T00:13:12;14.25;;;4.25;;
43744;SDS011;29359;53.048;8.732;2023-06-01T00:15:14;15.98;;;4.05;;
43744;SDS011;29359;53.048;8.732;2023-06-01T00:17:15;8.73;;;3.45;;
43744;SDS011;29359;53.048;8.732;2023-06-01T00:19:17;9.98;;;4.30;;
43744;SDS011;29359;53.048;8.732;2023-06-01T00:21:19;8.55;;;4.43;;
43744;SDS011;29359;53.048;8.732;2023-06-01T00:23:21;15.48;;;4.53;;
43744;SDS011;29359;53.048;8.732;2023-06-01T00:25:22;12.00;;;5.43;;
43744;SDS011;29359;53.048;8.732;2023-06-01T00:27:24;15.88;;;5.35;;
43744;SDS011;29359;53.048;8.732;2023-06-01T00:29:25;12.20;;;5.00;;
43744;SDS011;29359;53.048;8.732;2023-06-01T00:31:27;13.77;;;4.40;;
43744;SDS011;29359;53.048;8.732;2023-06-01T00:33:29;10.73;;;3.60;;
43744;SDS011;29359;53.048;8.732;2023-06-01T00:35:30;10.93;;;4.10;;
43744;SDS011;29359;53.048;8.732;2023-06-01T00:37:32;11.80;;;3.90;;
43744;SDS011;29359;53.048;8.732;2023-06-01T00:39:34;16.13;;;5.30;;
43744;SDS011;29359;53.048;8.732;2023-06-01T00:41:35;15.38;;;5.72;;
43744;SDS011;29359;53.048;8.732;2023-06-01T00:43:37;11.20;;;5.07;;
43744;SDS011;29359;53.048;8.732;2023-06-01T00:45:38;26.02;;;6.07;;
43744;SDS011;29359;53.048;8.732;2023-06-01T00:47:40;14.55;;;5.40;;
43744;SDS011;29359;53.048;8.732;2023-06-01T00:49:44;18.90;;;4.80;;
43744;SDS011;29359;53.048;8.732;2023-06-01T00:51:46;16.05;;;4.97;;
43744;SDS011;29359;53.048;8.732;2023-06-01T00:53:48;14.20;;;4.85;;
43744;SDS011;29359;53.048;8.732;2023-06-01T00:55:50;13.60;;;4.90;;
43744;SDS011;29359;53.048;8.732;2023-06-01T00:57:52;14.43;;;5.40;;
43744;SDS011;29359;53.048;8.732;2023-06-01T00:59:56;12.63;;;4.80;;
43744;SDS011;29359;53.048;8.732;2023-06-01T01:01:58;12.32;;;4.78;;
43744;SDS011;29359;53.048;8.732;2023-06-01T01:04:00;11.13;;;4.38;;
43744;SDS011;29359;53.048;8.732;2023-06-01T01:06:10;10.18;;;4.13;;
43744;SDS011;29359;53.048;8.732;2023-06-01T01:11:18;9.63;;;4.05;;
43744;SDS011;29359;53.048;8.732;2023-06-01T01:13:23;7.88;;;3.25;;
43744;SDS011;29359;53.048;8.732;2023-06-01T01:18:03;14.05;;;4.80;;
43744;SDS011;29359;53.048;8.732;2023-06-01T01:20:09;10.52;;;5.15;;
43744;SDS011;29359;53.048;8.732;2023-06-01T01:24:35;13.32;;;5.45;;
43744;SDS011;29359;53.048;8.732;2023-06-01T01:29:06;7.82;;;3.70;;
43744;SDS011;29359;53.048;8.732;2023-06-01T01:31:11;11.13;;;3.67;;
43744;SDS011;29359;53.048;8.732;2023-06-01T01:33:15;9.63;;;3.53;;
43744;SDS011;29359;53.048;8.732;2023-06-01T01:35:17;5.63;;;2.92;;
43744;SDS011;29359;53.048;8.732;2023-06-01T01:37:21;15.70;;;3.42;;
43744;SDS011;29359;53.048;8.732;2023-06-01T01:39:23;13.25;;;3.40;;
43744;SDS011;29359;53.048;8.732;2023-06-01T01:41:24;6.20;;;3.47;;
43744;SDS011;29359;53.048;8.732;2023-06-01T01:43:27;10.40;;;3.83;;
43744;SDS011;29359;53.048;8.732;2023-06-01T01:45:28;10.05;;;3.72;;
43744;SDS011;29359;53.048;8.732;2023-06-01T01:47:31;10.15;;;3.30;;
43744;SDS011;29359;53.048;8.732;2023-06-01T01:49:49;7.63;;;3.43;;
43744;SDS011;29359;53.048;8.732;2023-06-01T01:52:39;7.20;;;3.05;;
43744;SDS011;29359;53.048;8.732;2023-06-01T01:54:28;6.78;;;3.65;;
43744;SDS011;29359;53.048;8.732;2023-06-01T01:56:30;10.18;;;4.88;;
43744;SDS011;29359;53.048;8.732;2023-06-01T01:58:33;13.90;;;3.45;;
43744;SDS011;29359;53.048;8.732;2023-06-01T02:00:35;11.32;;;4.00;;
43744;SDS011;29359;53.048;8.732;2023-06-01T02:02:37;8.55;;;3.67;;
43744;SDS011;29359;53.048;8.732;2023-06-01T02:04:39;13.75;;;4.47;;
43744;SDS011;29359;53.048;8.732;2023-06-01T02:06:41;11.88;;;4.13;;
43744;SDS011;29359;53.048;8.732;2023-06-01T02:08:43;9.77;;;4.25;;
43744;SDS011;29359;53.048;8.732;2023-06-01T02:10:44;11.20;;;4.60;;
43744;SDS011;29359;53.048;8.732;2023-06-01T02:12:46;8.27;;;4.25;;
43744;SDS011;29359;53.048;8.732;2023-06-01T02:14:47;12.80;;;4.30;;
43744;SDS011;29359;53.048;8.732;2023-06-01T02:16:49;14.82;;;5.18;;
43744;SDS011;29359;53.048;8.732;2023-06-01T02:18:51;8.18;;;4.07;;
43744;SDS011;29359;53.048;8.732;2023-06-01T02:20:53;15.32;;;5.10;;
43744;SDS011;29359;53.048;8.732;2023-06-01T02:22:54;8.20;;;4.30;;
43744;SDS011;29359;53.048;8.732;2023-06-01T02:24:56;9.50;;;4.38;;
43744;SDS011;29359;53.048;8.732;2023-06-01T02:26:57;7.90;;;3.47;;
43744;SDS011;29359;53.048;8.732;2023-06-01T02:28:59;5.53;;;2.80;;
43744;SDS011;29359;53.048;8.732;2023-06-01T02:31:01;6.88;;;2.80;;
43744;SDS011;29359;53.048;8.732;2023-06-01T02:33:02;10.95;;;2.90;;
43744;SDS011;29359;53.048;8.732;2023-06-01T02:35:04;8.90;;;3.08;;
43744;SDS011;29359;53.048;8.732;2023-06-01T02:37:08;7.38;;;3.08;;
43744;SDS011;29359;53.048;8.732;2023-06-01T02:39:09;7.43;;;2.47;;
43744;SDS011;29359;53.048;8.732;2023-06-01T02:41:11;6.20;;;2.65;;
43744;SDS011;29359;53.048;8.732;2023-06-01T02:43:13;8.50;;;3.03;;
43744;SDS011;29359;53.048;8.732;2023-06-01T02:45:14;9.13;;;3.28;;
43744;SDS011;29359;53.048;8.732;2023-06-01T02:47:16;7.63;;;2.85;;
43744;SDS011;29359;53.048;8.732;2023-06-01T02:49:18;4.85;;;2.28;;
43744;SDS011;29359;53.048;8.732;2023-06-01T02:51:19;9.32;;;2.90;;
43744;SDS011;29359;53.048;8.732;2023-06-01T02:53:21;9.80;;;2.60;;
43744;SDS011;29359;53.048;8.732;2023-06-01T02:55:22;7.82;;;2.95;;
43744;SDS011;29359;53.048;8.732;2023-06-01T02:57:24;8.80;;;2.83;;
43744;SDS011;29359;53.048;8.732;2023-06-01T02:59:25;15.23;;;3.20;;
43744;SDS011;29359;53.048;8.732;2023-06-01T03:01:27;12.02;;;3.17;;
43744;SDS011;29359;53.048;8.732;2023-06-01T03:03:29;12.88;;;3.90;;
43744;SDS011;29359;53.048;8.732;2023-06-01T03:05:30;8.23;;;3.50;;
43744;SDS011;29359;53.048;8.732;2023-06-01T03:07:34;10.63;;;3.22;;
43744;SDS011;29359;53.048;8.732;2023-06-01T03:09:35;15.00;;;3.67;;
43744;SDS011;29359;53.048;8.732;2023-06-01T03:11:37;13.18;;;4.07;;
43744;SDS011;29359;53.048;8.732;2023-06-01T03:13:38;8.15;;;3.28;;
43744;SDS011;29359;53.048;8.732;2023-06-01T03:15:40;12.52;;;3.60;;
43744;SDS011;29359;53.048;8.732;2023-06-01T03:17:42;15.98;;;4.13;;
43744;SDS011;29359;53.048;8.732;2023-06-01T03:19:43;8.05;;;3.38;;
43744;SDS011;29359;53.048;8.732;2023-06-01T03:21:45;10.50;;;3.83;;
43744;SDS011;29359;53.048;8.732;2023-06-01T03:23:48;10.75;;;3.72;;
43744;SDS011;29359;53.048;8.732;2023-06-01T03:25:49;9.80;;;3.55;;
43744;SDS011;29359;53.048;8.732;2023-06-01T03:27:51;17.70;;;4.15;;
43744;SDS011;29359;53.048;8.732;2023-06-01T03:29:53;12.10;;;3.55;;
43744;SDS011;29359;53.048;8.732;2023-06-01T03:31:54;8.57;;;3.08;;
43744;SDS011;29359;53.048;8.732;2023-06-01T03:33:56;13.18;;;2.92;;
43744;SDS011;29359;53.048;8.732;2023-06-01T03:35:57;12.90;;;4.00;;
43744;SDS011;29359;53.048;8.732;2023-06-01T03:37:59;8.85;;;3.60;;
43744;SDS011;29359;53.048;8.732;2023-06-01T03:40:00;10.30;;;3.47;;
43744;SDS011;29359;53.048;8.732;2023-06-01T03:42:02;13.82;;;3.40;;
43744;SDS011;29359;53.048;8.732;2023-06-01T03:44:04;9.82;;;3.58;;
43744;SDS011;29359;53.048;8.732;2023-06-01T03:46:06;14.10;;;3.38;;
43744;SDS011;29359;53.048;8.732;2023-06-01T03:48:07;20.85;;;3.60;;
43744;SDS011;29359;53.048;8.732;2023-06-01T03:50:10;12.27;;;4.32;;
43744;SDS011;29359;53.048;8.732;2023-06-01T03:52:11;17.23;;;4.25;;
43744;SDS011;29359;53.048;8.732;2023-06-01T03:54:13;9.98;;;3.75;;
43744;SDS011;29359;53.048;8.732;2023-06-01T03:56:15;10.15;;;3.72;;
43744;SDS011;29359;53.048;8.732;2023-06-01T03:58:16;14.38;;;6.28;;
43744;SDS011;29359;53.048;8.732;2023-06-01T04:00:20;9.80;;;3.70;;
43744;SDS011;29359;53.048;8.732;2023-06-01T04:02:24;7.43;;;3.28;;
43744;SDS011;29359;53.048;8.732;2023-06-01T04:04:26;11.48;;;3.40;;
43744;SDS011;29359;53.048;8.732;2023-06-01T04:06:29;13.32;;;3.40;;
43744;SDS011;29359;53.048;8.732;2023-06-01T04:08:36;12.63;;;3.97;;
43744;SDS011;29359;53.048;8.732;2023-06-01T04:10:39;10.25;;;3.42;;
43744;SDS011;29359;53.048;8.732;2023-06-01T04:12:41;12.82;;;3.40;;
43744;SDS011;29359;53.048;8.732;2023-06-01T04:14:44;7.95;;;3.55;;
43744;SDS011;29359;53.048;8.732;2023-06-01T04:16:45;13.10;;;3.50;;
43744;SDS011;29359;53.048;8.732;2023-06-01T04:18:47;9.32;;;3.17;;
43744;SDS011;29359;53.048;8.732;2023-06-01T04:20:48;16.63;;;3.88;;
43744;SDS011;29359;53.048;8.732;2023-06-01T04:22:50;9.27;;;3.25;;
43744;SDS011;29359;53.048;8.732;2023-06-01T04:24:51;11.95;;;3.60;;
43744;SDS011;29359;53.048;8.732;2023-06-01T04:26:53;12.15;;;3.20;;
43744;SDS011;29359;53.048;8.732;2023-06-01T04:28:54;10.95;;;3.20;;
43744;SDS011;29359;53.048;8.732;2023-06-01T04:30:58;8.35;;;2.97;;
43744;SDS011;29359;53.048;8.732;2023-06-01T04:33:00;14.52;;;3.90;;
43744;SDS011;29359;53.048;8.732;2023-06-01T04:35:02;12.82;;;3.58;;
43744;SDS011;29359;53.048;8.732;2023-06-01T04:37:06;12.40;;;4.05;;
43744;SDS011;29359;53.048;8.732;2023-06-01T04:39:08;8.77;;;4.15;;
43744;SDS011;29359;53.048;8.732;2023-06-01T04:41:10;13.82;;;3.95;;
43744;SDS011;29359;53.048;8.732;2023-06-01T04:43:11;12.60;;;4.28;;
43744;SDS011;29359;53.048;8.732;2023-06-01T04:45:13;7.05;;;3.88;;
43744;SDS011;29359;53.048;8.732;2023-06-01T04:47:16;14.73;;;4.30;;
43744;SDS011;29359;53.048;8.732;2023-06-01T04:49:18;11.95;;;3.83;;
43744;SDS011;29359;53.048;8.732;2023-06-01T04:51:20;14.02;;;4.07;;
43744;SDS011;29359;53.048;8.732;2023-06-01T04:53:22;12.02;;;3.95;;
43744;SDS011;29359;53.048;8.732;2023-06-01T04:55:24;15.60;;;3.95;;
43744;SDS011;29359;53.048;8.732;2023-06-01T04:57:25;11.68;;;3.58;;
43744;SDS011;29359;53.048;8.732;2023-06-01T04:59:27;12.20;;;3.97;;
43744;SDS011;29359;53.048;8.732;2023-06-01T05:01:28;16.83;;;4.40;;
43744;SDS011;29359;53.048;8.732;2023-06-01T05:03:32;12.80;;;4.22;;
43744;SDS011;29359;53.048;8.732;2023-06-01T05:05:33;12.05;;;4.28;;
43744;SDS011;29359;53.048;8.732;2023-06-01T05:07:36;9.45;;;4.00;;
43744;SDS011;29359;53.048;8.732;2023-06-01T05:09:38;8.43;;;3.47;;
43744;SDS011;29359;53.048;8.732;2023-06-01T05:11:40;11.25;;;4.38;;
43744;SDS011;29359;53.048;8.732;2023-06-01T05:13:41;11.90;;;3.92;;
43744;SDS011;29359;53.048;8.732;2023-06-01T05:15:44;11.43;;;4.00;;
43744;SDS011;29359;53.048;8.732;2023-06-01T05:17:46;12.85;;;4.20;;
43744;SDS011;29359;53.048;8.732;2023-06-01T05:19:51;15.98;;;4.60;;
43744;SDS011;29359;53.048;8.732;2023-06-01T05:21:53;7.47;;;4.40;;
43744;SDS011;29359;53.048;8.732;2023-06-01T05:23:54;10.45;;;3.83;;
43744;SDS011;29359;53.048;8.732;2023-06-01T05:25:56;11.52;;;4.63;;
43744;SDS011;29359;53.048;8.732;2023-06-01T05:28:03;13.88;;;4.60;;
43744;SDS011;29359;53.048;8.732;2023-06-01T05:30:05;15.75;;;5.22;;
43744;SDS011;29359;53.048;8.732;2023-06-01T05:32:08;13.88;;;4.28;;
43744;SDS011;29359;53.048;8.732;2023-06-01T05:34:10;13.23;;;4.75;;
43744;SDS011;29359;53.048;8.732;2023-06-01T05:36:11;8.02;;;3.90;;
43744;SDS011;29359;53.048;8.732;2023-06-01T05:38:13;7.95;;;3.40;;
43744;SDS011;29359;53.048;8.732;2023-06-01T05:40:14;8.68;;;4.18;;
43744;SDS011;29359;53.048;8.732;2023-06-01T05:42:16;5.40;;;3.15;;
43744;SDS011;29359;53.048;8.732;2023-06-01T05:44:18;9.85;;;3.92;;
43744;SDS011;29359;53.048;8.732;2023-06-01T05:46:19;6.57;;;4.15;;
43744;SDS011;29359;53.048;8.732;2023-06-01T05:48:21;7.72;;;4.30;;
43744;SDS011;29359;53.048;8.732;2023-06-01T05:50:23;11.48;;;3.90;;
43744;SDS011;29359;53.048;8.732;2023-06-01T05:52:25;5.55;;;3.50;;
43744;SDS011;29359;53.048;8.732;2023-06-01T05:54:27;6.20;;;3.22;;
43744;SDS011;29359;53.048;8.732;2023-06-01T05:56:29;7.05;;;3.80;;
43744;SDS011;29359;53.048;8.732;2023-06-01T05:58:30;13.07;;;4.32;;
43744;SDS011;29359;53.048;8.732;2023-06-01T06:00:32;6.65;;;3.72;;
43744;SDS011;29359;53.048;8.732;2023-06-01T06:02:37;11.77;;;3.80;;
43744;SDS011;29359;53.048;8.732;2023-06-01T06:04:39;8.32;;;3.70;;
43744;SDS011;29359;53.048;8.732;2023-06-01T06:06:41;5.50;;;3.90;;
43744;SDS011;29359;53.048;8.732;2023-06-01T06:08:42;8.25;;;4.00;;
43744;SDS011;29359;53.048;8.732;2023-06-01T06:10:44;7.30;;;3.65;;
43744;SDS011;29359;53.048;8.732;2023-06-01T06:12:46;5.95;;;4.07;;
43744;SDS011;29359;53.048;8.732;2023-06-01T06:14:47;6.32;;;3.60;;
43744;SDS011;29359;53.048;8.732;2023-06-01T06:16:50;11.40;;;3.35;;
43744;SDS011;29359;53.048;8.732;2023-06-01T06:18:51;10.27;;;3.70;;
43744;SDS011;29359;53.048;8.732;2023-06-01T06:20:53;7.05;;;3.83;;
43744;SDS011;29359;53.048;8.732;2023-06-01T06:22:54;4.80;;;3.15;;
43744;SDS011;29359;53.048;8.732;2023-06-01T06:24:56;7.43;;;2.83;;
43744;SDS011;29359;53.048;8.732;2023-06-01T06:26:58;6.97;;;2.97;;
43744;SDS011;29359;53.048;8.732;2023-06-01T06:28:59;4.43;;;2.92;;
43744;SDS011;29359;53.048;8.732;2023-06-01T06:31:01;5.90;;;3.10;;
43744;SDS011;29359;53.048;8.732;2023-06-01T06:33:03;6.13;;;2.15;;
43744;SDS011;29359;53.048;8.732;2023-06-01T06:35:04;3.95;;;2.47;;
43744;SDS011;29359;53.048;8.732;2023-06-01T06:37:06;4.07;;;1.77;;
43744;SDS011;29359;53.048;8.732;2023-06-01T06:39:08;4.13;;;2.00;;
43744;SDS011;29359;53.048;8.732;2023-06-01T06:41:10;7.68;;;1.92;;
43744;SDS011;29359;53.048;8.732;2023-06-01T06:43:11;3.70;;;1.80;;
43744;SDS011;29359;53.048;8.732;2023-06-01T06:45:14;7.90;;;2.50;;
43744;SDS011;29359;53.048;8.732;2023-06-01T06:47:16;5.63;;;2.40;;
43744;SDS011;29359;53.048;8.732;2023-06-01T06:49:21;4.78;;;2.30;;
43744;SDS011;29359;53.048;8.732;2023-06-01T06:51:22;9.43;;;3.33;;
43744;SDS011;29359;53.048;8.732;2023-06-01T06:53:24;5.53;;;2.70;;
43744;SDS011;29359;53.048;8.732;2023-06-01T06:55:25;5.13;;;2.95;;
43744;SDS011;29359;53.048;8.732;2023-06-01T06:57:27;4.97;;;3.08;;
43744;SDS011;29359;53.048;8.732;2023-06-01T06:59:29;7.97;;;2.83;;
43744;SDS011;29359;53.048;8.732;2023-06-01T07:01:31;5.60;;;2.97;;
43744;SDS011;29359;53.048;8.732;2023-06-01T07:03:40;4.88;;;3.15;;
43744;SDS011;29359;53.048;8.732;2023-06-01T07:05:42;7.35;;;3.00;;
43744;SDS011;29359;53.048;8.732;2023-06-01T07:07:46;4.82;;;2.70;;
43744;SDS011;29359;53.048;8.732;2023-06-01T07:09:47;6.38;;;3.22;;
43744;SDS011;29359;53.048;8.732;2023-06-01T07:11:49;5.82;;;2.72;;
43744;SDS011;29359;53.048;8.732;2023-06-01T07:13:51;3.97;;;2.70;;
43744;SDS011;29359;53.048;8.732;2023-06-01T07:15:53;5.05;;;2.22;;
43744;SDS011;29359;53.048;8.732;2023-06-01T07:17:55;7.30;;;2.63;;
43744;SDS011;29359;53.048;8.732;2023-06-01T07:19:57;6.10;;;2.30;;
43744;SDS011;29359;53.048;8.732;2023-06-01T07:21:59;4.60;;;2.55;;
43744;SDS011;29359;53.048;8.732;2023-06-01T07:24:01;4.78;;;2.63;;
43744;SDS011;29359;53.048;8.732;2023-06-01T07:26:03;7.30;;;2.65;;
43744;SDS011;29359;53.048;8.732;2023-06-01T07:28:05;5.70;;;2.90;;
43744;SDS011;29359;53.048;8.732;2023-06-01T07:30:09;5.45;;;2.67;;
43744;SDS011;29359;53.048;8.732;2023-06-01T07:32:11;12.85;;;3.40;;
43744;SDS011;29359;53.048;8.732;2023-06-01T07:34:13;6.85;;;3.22;;
43744;SDS011;29359;53.048;8.732;2023-06-01T07:36:17;4.70;;;3.30;;
43744;SDS011;29359;53.048;8.732;2023-06-01T07:38:19;6.78;;;2.88;;
43744;SDS011;29359;53.048;8.732;2023-06-01T07:40:21;7.38;;;3.10;;
43744;SDS011;29359;53.048;8.732;2023-06-01T07:42:23;4.95;;;2.78;;
43744;SDS011;29359;53.048;8.732;2023-06-01T07:44:24;7.03;;;3.42;;
43744;SDS011;29359;53.048;8.732;2023-06-01T07:46:27;5.80;;;3.10;;
43744;SDS011;29359;53.048;8.732;2023-06-01T07:48:28;7.63;;;3.08;;
43744;SDS011;29359;53.048;8.732;2023-06-01T07:50:30;6.78;;;3.13;;
43744;SDS011;29359;53.048;8.732;2023-06-01T07:52:32;5.40;;;3.20;;
43744;SDS011;29359;53.048;8.732;2023-06-01T07:54:34;5.82;;;3.08;;
43744;SDS011;29359;53.048;8.732;2023-06-01T07:56:38;8.38;;;3.00;;
43744;SDS011;29359;53.048;8.732;2023-06-01T07:58:40;6.10;;;2.72;;
43744;SDS011;29359;53.048;8.732;2023-06-01T08:00:43;4.82;;;2.80;;
43744;SDS011;29359;53.048;8.732;2023-06-01T08:02:45;6.15;;;3.30;;
43744;SDS011;29359;53.048;8.732;2023-06-01T08:04:47;7.75;;;3.33;;
43744;SDS011;29359;53.048;8.732;2023-06-01T08:06:49;6.22;;;3.35;;
43744;SDS011;29359;53.048;8.732;2023-06-01T08:08:54;5.53;;;3.20;;
43744;SDS011;29359;53.048;8.732;2023-06-01T08:10:55;8.55;;;4.03;;
43744;SDS011;29359;53.048;8.732;2023-06-01T08:12:57;6.90;;;3.00;;
43744;SDS011;29359;53.048;8.732;2023-06-01T08:14:59;5.25;;;2.88;;
43744;SDS011;29359;53.048;8.732;2023-06-01T08:17:01;6.88;;;3.00;;
43744;SDS011;29359;53.048;8.732;2023-06-01T08:19:03;7.47;;;3.20;;
43744;SDS011;29359;53.048;8.732;2023-06-01T08:21:05;6.47;;;3.65;;
43744;SDS011;29359;53.048;8.732;2023-06-01T08:23:06;5.55;;;3.22;;
43744;SDS011;29359;53.048;8.732;2023-06-01T08:25:08;10.27;;;2.88;;
43744;SDS011;29359;53.048;8.732;2023-06-01T08:27:16;6.15;;;3.90;;
43744;SDS011;29359;53.048;8.732;2023-06-01T08:29:25;8.70;;;3.33;;
43744;SDS011;29359;53.048;8.732;2023-06-01T08:31:42;6.25;;;3.65;;
43744;SDS011;29359;53.048;8.732;2023-06-01T08:33:44;9.20;;;3.30;;
43744;SDS011;29359;53.048;8.732;2023-06-01T08:35:46;8.05;;;3.90;;
43744;SDS011;29359;53.048;8.732;2023-06-01T08:37:48;11.63;;;3.67;;
43744;SDS011;29359;53.048;8.732;2023-06-01T08:39:49;9.93;;;3.53;;
43744;SDS011;29359;53.048;8.732;2023-06-01T08:42:08;9.55;;;3.53;;
43744;SDS011;29359;53.048;8.732;2023-06-01T08:44:13;8.40;;;3.28;;
43744;SDS011;29359;53.048;8.732;2023-06-01T08:46:18;7.85;;;2.72;;
43744;SDS011;29359;53.048;8.732;2023-06-01T08:48:23;6.15;;;2.95;;
43744;SDS011;29359;53.048;8.732;2023-06-01T08:50:26;9.68;;;3.08;;
43744;SDS011;29359;53.048;8.732;2023-06-01T08:52:28;7.22;;;2.70;;
43744;SDS011;29359;53.048;8.732;2023-06-01T08:54:33;8.93;;;2.60;;
43744;SDS011;29359;53.048;8.732;2023-06-01T08:56:35;9.15;;;3.53;;
43744;SDS011;29359;53.048;8.732;2023-06-01T08:58:38;8.05;;;2.78;;
43744;SDS011;29359;53.048;8.732;2023-06-01T09:00:42;5.78;;;2.58;;
43744;SDS011;29359;53.048;8.732;2023-06-01T09:02:44;6.78;;;2.95;;
43744;SDS011;29359;53.048;8.732;2023-06-01T09:04:45;11.38;;;2.55;;
43744;SDS011;29359;53.048;8.732;2023-06-01T09:06:47;8.80;;;3.13;;
43744;SDS011;29359;53.048;8.732;2023-06-01T09:08:51;5.70;;;2.83;;
43744;SDS011;29359;53.048;8.732;2023-06-01T09:10:53;6.15;;;2.80;;
43744;SDS011;29359;53.048;8.732;2023-06-01T09:12:54;6.30;;;2.92;;
43744;SDS011;29359;53.048;8.732;2023-06-01T09:15:12;8.27;;;2.92;;
43744;SDS011;29359;53.048;8.732;2023-06-01T09:17:21;4.47;;;2.38;;
43744;SDS011;29359;53.048;8.732;2023-06-01T09:19:24;3.88;;;2.53;;
43744;SDS011;29359;53.048;8.732;2023-06-01T09:21:54;6.05;;;2.55;;
43744;SDS011;29359;53.048;8.732;2023-06-01T09:26:25;10.57;;;2.72;;
43744;SDS011;29359;53.048;8.732;2023-06-01T09:28:28;8.10;;;2.53;;
43744;SDS011;29359;53.048;8.732;2023-06-01T09:30:40;6.18;;;2.63;;
43744;SDS011;29359;53.048;8.732;2023-06-01T09:32:43;7.13;;;2.72;;
43744;SDS011;29359;53.048;8.732;2023-06-01T09:34:48;6.55;;;2.70;;
43744;SDS011;29359;53.048;8.732;2023-06-01T09:36:51;9.32;;;2.80;;
43744;SDS011;29359;53.048;8.732;2023-06-01T09:39:03;6.78;;;2.63;;
43744;SDS011;29359;53.048;8.732;2023-06-01T09:41:10;5.93;;;2.33;;
43744;SDS011;29359;53.048;8.732;2023-06-01T09:43:20;6.57;;;2.30;;
43744;SDS011;29359;53.048;8.732;2023-06-01T09:45:22;5.30;;;2.03;;
43744;SDS011;29359;53.048;8.732;2023-06-01T09:47:27;4.10;;;1.90;;
43744;SDS011;29359;53.048;8.732;2023-06-01T09:49:30;8.50;;;1.70;;
43744;SDS011;29359;53.048;8.732;2023-06-01T09:51:33;6.97;;;1.58;;
43744;SDS011;29359;53.048;8.732;2023-06-01T09:53:41;5.35;;;1.75;;
43744;SDS011;29359;53.048;8.732;2023-06-01T09:55:55;5.88;;;1.70;;
43744;SDS011;29359;53.048;8.732;2023-06-01T09:58:20;5.68;;;1.77;;
43744;SDS011;29359;53.048;8.732;2023-06-01T10:00:23;8.63;;;1.95;;
43744;SDS011;29359;53.048;8.732;2023-06-01T10:02:28;7.53;;;1.88;;
43744;SDS011;29359;53.048;8.732;2023-06-01T10:04:32;6.22;;;1.70;;
43744;SDS011;29359;53.048;8.732;2023-06-01T10:06:38;3.90;;;1.90;;
43744;SDS011;29359;53.048;8.732;2023-06-01T10:08:41;7.43;;;2.05;;
43744;SDS011;29359;53.048;8.732;2023-06-01T10:10:48;6.35;;;1.73;;
43744;SDS011;29359;53.048;8.732;2023-06-01T10:12:50;7.53;;;2.58;;
43744;SDS011;29359;53.048;8.732;2023-06-01T10:14:51;11.50;;;2.25;;
43744;SDS011;29359;53.048;8.732;2023-06-01T10:16:54;6.70;;;2.42;;
43744;SDS011;29359;53.048;8.732;2023-06-01T10:18:56;5.40;;;2.00;;
43744;SDS011;29359;53.048;8.732;2023-06-01T10:20:58;7.20;;;2.28;;
43744;SDS011;29359;53.048;8.732;2023-06-01T10:23:01;6.50;;;2.28;;
43744;SDS011;29359;53.048;8.732;2023-06-01T10:25:04;6.25;;;1.88;;
43744;SDS011;29359;53.048;8.732;2023-06-01T10:27:11;4.70;;;1.92;;
43744;SDS011;29359;53.048;8.732;2023-06-01T10:29:17;7.13;;;2.25;;
43744;SDS011;29359;53.048;8.732;2023-06-01T10:31:32;5.35;;;2.15;;
43744;SDS011;29359;53.048;8.732;2023-06-01T10:33:55;7.05;;;1.70;;
43744;SDS011;29359;53.048;8.732;2023-06-01T10:35:59;8.32;;;2.15;;
43744;SDS011;29359;53.048;8.732;2023-06-01T10:40:20;4.55;;;2.15;;
43744;SDS011;29359;53.048;8.732;2023-06-01T10:42:35;12.73;;;2.63;;
43744;SDS011;29359;53.048;8.732;2023-06-01T10:46:40;9.82;;;2.30;;
43744;SDS011;29359;53.048;8.732;2023-06-01T10:48:55;17.88;;;3.45;;
43744;SDS011;29359;53.048;8.732;2023-06-01T10:51:17;8.32;;;2.63;;
43744;SDS011;29359;53.048;8.732;2023-06-01T10:53:25;8.55;;;2.17;;
43744;SDS011;29359;53.048;8.732;2023-06-01T10:55:28;10.52;;;2.15;;
43744;SDS011;29359;53.048;8.732;2023-06-01T10:57:29;8.05;;;2.72;;
43744;SDS011;29359;53.048;8.732;2023-06-01T10:59:32;9.65;;;2.47;;
43744;SDS011;29359;53.048;8.732;2023-06-01T11:01:34;11.48;;;2.55;;
43744;SDS011;29359;53.048;8.732;2023-06-01T11:03:44;7.47;;;2.10;;
43744;SDS011;29359;53.048;8.732;2023-06-01T11:05:51;9.00;;;1.80;;
43744;SDS011;29359;53.048;8.732;2023-06-01T11:07:53;9.48;;;2.33;;
43744;SDS011;29359;53.048;8.732;2023-06-01T11:09:54;9.68;;;2.55;;
43744;SDS011;29359;53.048;8.732;2023-06-01T11:11:57;5.90;;;2.03;;
43744;SDS011;29359;53.048;8.732;2023-06-01T11:14:06;6.80;;;2.15;;
43744;SDS011;29359;53.048;8.732;2023-06-01T11:20:43;10.82;;;2.35;;
43744;SDS011;29359;53.048;8.732;2023-06-01T11:22:46;5.28;;;2.25;;
43744;SDS011;29359;53.048;8.732;2023-06-01T11:24:48;7.65;;;2.13;;
43744;SDS011;29359;53.048;8.732;2023-06-01T11:26:54;8.07;;;2.58;;
43744;SDS011;29359;53.048;8.732;2023-06-01T11:29:03;9.18;;;2.55;;
43744;SDS011;29359;53.048;8.732;2023-06-01T11:31:13;13.18;;;2.78;;
43744;SDS011;29359;53.048;8.732;2023-06-01T11:33:17;8.85;;;2.60;;
43744;SDS011;29359;53.048;8.732;2023-06-01T11:35:20;10.23;;;2.70;;
43744;SDS011;29359;53.048;8.732;2023-06-01T11:37:22;13.38;;;2.20;;
43744;SDS011;29359;53.048;8.732;2023-06-01T11:39:27;10.88;;;2.88;;
43744;SDS011;29359;53.048;8.732;2023-06-01T11:41:32;10.35;;;2.55;;
43744;SDS011;29359;53.048;8.732;2023-06-01T11:43:33;11.55;;;3.22;;
43744;SDS011;29359;53.048;8.732;2023-06-01T11:45:35;17.73;;;3.03;;
43744;SDS011;29359;53.048;8.732;2023-06-01T11:47:38;13.82;;;2.95;;
43744;SDS011;29359;53.048;8.732;2023-06-01T11:49:43;7.55;;;2.33;;
43744;SDS011;29359;53.048;8.732;2023-06-01T11:51:48;8.48;;;2.60;;
43744;SDS011;29359;53.048;8.732;2023-06-01T11:53:52;11.43;;;2.33;;
43744;SDS011;29359;53.048;8.732;2023-06-01T11:55:56;8.73;;;3.17;;
43744;SDS011;29359;53.048;8.732;2023-06-01T11:57:58;8.38;;;2.63;;
43744;SDS011;29359;53.048;8.732;2023-06-01T12:00:00;9.20;;;2.67;;
43744;SDS011;29359;53.048;8.732;2023-06-01T12:02:01;14.52;;;3.05;;
43744;SDS011;29359;53.048;8.732;2023-06-01T12:04:04;13.40;;;2.30;;
43744;SDS011;29359;53.048;8.732;2023-06-01T12:06:06;11.18;;;2.92;;
43744;SDS011;29359;53.048;8.732;2023-06-01T12:08:12;11.15;;;2.75;;
43744;SDS011;29359;53.048;8.732;2023-06-01T12:10:16;11.32;;;2.63;;
43744;SDS011;29359;53.048;8.732;2023-06-01T12:12:22;9.65;;;2.17;;
43744;SDS011;29359;53.048;8.732;2023-06-01T12:14:25;12.05;;;3.00;;
43744;SDS011;29359;53.048;8.732;2023-06-01T12:18:53;10.30;;;2.50;;
43744;SDS011;29359;53.048;8.732;2023-06-01T12:20:56;13.23;;;2.42;;
43744;SDS011;29359;53.048;8.732;2023-06-01T12:22:58;9.90;;;2.40;;
43744;SDS011;29359;53.048;8.732;2023-06-01T12:25:08;6.20;;;2.30;;
43744;SDS011;29359;53.048;8.732;2023-06-01T12:27:14;13.70;;;2.58;;
43744;SDS011;29359;53.048;8.732;2023-06-01T12:29:33;17.02;;;2.83;;
43744;SDS011;29359;53.048;8.732;2023-06-01T12:31:53;10.60;;;2.78;;
43744;SDS011;29359;53.048;8.732;2023-06-01T12:33:58;7.30;;;2.85;;
43744;SDS011;29359;53.048;8.732;2023-06-01T12:36:00;5.55;;;2.92;;
43744;SDS011;29359;53.048;8.732;2023-06-01T12:38:03;14.80;;;2.95;;
43744;SDS011;29359;53.048;8.732;2023-06-01T12:40:07;14.02;;;3.45;;
43744;SDS011;29359;53.048;8.732;2023-06-01T12:42:10;11.40;;;3.47;;
43744;SDS011;29359;53.048;8.732;2023-06-01T12:44:17;17.58;;;3.25;;